createdAt,value
2018-01-27T00:02:17.857Z,5.30
2018-01-27T00:04:46.106Z,5.40
2018-01-27T00:07:13.676Z,5.30
2018-01-27T00:09:41.870Z,5.20
2018-01-27T00:12:10.197Z,5.20
2018-01-27T00:14:37.634Z,5.20
2018-01-27T00:17:05.110Z,5.20
2018-01-27T00:19:32.573Z,5.20
2018-01-27T00:22:00.007Z,5.20
2018-01-27T00:24:27.437Z,5.20
2018-01-27T00:26:55.640Z,5.20
2018-01-27T00:29:23.070Z,5.20
2018-01-27T00:31:50.501Z,5.20
2018-01-27T00:34:18.737Z,5.20
2018-01-27T00:36:46.177Z,5.10
2018-01-27T00:39:13.649Z,5.20
2018-01-27T00:41:41.094Z,5.20
2018-01-27T00:44:08.558Z,5.10
2018-01-27T00:46:36.126Z,5.10
2018-01-27T00:49:03.640Z,5.10
2018-01-27T00:51:31.757Z,5.10
2018-01-27T00:53:59.196Z,5.00
2018-01-27T00:56:26.775Z,4.90
2018-01-27T00:58:54.221Z,5.00
2018-01-27T01:01:21.659Z,5.00
2018-01-27T01:03:49.146Z,4.90
2018-01-27T01:06:16.694Z,4.90
2018-01-27T01:08:44.191Z,4.90
2018-01-27T01:11:11.817Z,4.90
2018-01-27T01:13:39.386Z,4.90
2018-01-27T01:16:06.837Z,4.80
2018-01-27T01:18:34.289Z,4.80
2018-01-27T01:21:01.725Z,4.90
2018-01-27T01:23:29.201Z,4.80
2018-01-27T01:25:56.657Z,4.80
2018-01-27T01:28:24.197Z,4.90
2018-01-27T01:30:51.669Z,4.80
2018-01-27T01:33:19.129Z,4.90
2018-01-27T01:35:46.584Z,4.90
2018-01-27T01:38:14.013Z,4.90
2018-01-27T01:40:41.444Z,4.90
2018-01-27T01:43:15.341Z,5.00
2018-01-27T01:45:43.538Z,5.10
2018-01-27T01:48:11.042Z,5.00
2018-01-27T01:50:38.497Z,5.10
2018-01-27T01:53:06.032Z,5.10
2018-01-27T01:55:33.613Z,5.10
2018-01-27T01:58:01.058Z,5.10
2018-01-27T02:00:28.485Z,5.20
2018-01-27T02:02:55.970Z,5.20
2018-01-27T02:05:23.405Z,5.20
2018-01-27T02:07:50.844Z,5.40
2018-01-27T02:10:19.042Z,5.50
2018-01-27T02:12:46.476Z,5.50
2018-01-27T02:15:13.977Z,5.40
2018-01-27T02:17:41.531Z,5.40
2018-01-27T02:20:08.957Z,5.40
2018-01-27T02:22:36.394Z,5.50
2018-01-27T02:25:04.730Z,5.50
2018-01-27T02:27:32.185Z,5.50
2018-01-27T02:29:59.629Z,5.50
2018-01-27T02:32:27.049Z,5.50
2018-01-27T02:34:54.498Z,5.50
2018-01-27T02:37:22.690Z,5.50
2018-01-27T02:39:50.122Z,5.40
2018-01-27T02:42:17.550Z,5.50
2018-01-27T02:44:44.986Z,5.50
2018-01-27T02:47:12.446Z,5.60
2018-01-27T02:49:39.913Z,5.70
2018-01-27T02:52:07.376Z,5.80
2018-01-27T02:54:34.917Z,5.90
2018-01-27T02:57:02.386Z,6.00
2018-01-27T02:59:29.826Z,6.20
2018-01-27T03:01:57.491Z,6.20
2018-01-27T03:04:25.041Z,6.20
2018-01-27T03:06:52.514Z,6.20
2018-01-27T03:09:19.954Z,6.20
2018-01-27T03:11:47.420Z,6.20
2018-01-27T03:14:14.876Z,6.20
2018-01-27T03:16:42.317Z,6.20
2018-01-27T03:19:09.777Z,6.10
2018-01-27T03:21:37.205Z,6.00
2018-01-27T03:24:04.693Z,6.00
2018-01-27T03:26:32.337Z,6.10
2018-01-27T03:28:59.770Z,6.10
2018-01-27T03:31:27.266Z,6.10
2018-01-27T03:33:54.689Z,6.00
2018-01-27T03:36:22.141Z,6.00
2018-01-27T03:38:49.570Z,6.00
2018-01-27T03:41:17.006Z,6.00
2018-01-27T03:43:44.429Z,6.00
2018-01-27T03:46:11.914Z,6.00
2018-01-27T03:48:39.357Z,6.00
2018-01-27T03:51:06.817Z,6.00
2018-01-27T03:53:34.460Z,6.00
2018-01-27T03:56:01.869Z,6.00
2018-01-27T03:58:29.300Z,6.00
2018-01-27T04:00:56.738Z,6.00
2018-01-27T04:03:24.182Z,6.00
2018-01-27T04:05:51.622Z,6.00
2018-01-27T04:08:19.221Z,6.00
2018-01-27T04:10:46.665Z,6.10
2018-01-27T04:13:14.111Z,6.00
2018-01-27T04:15:41.594Z,6.10
2018-01-27T04:18:09.044Z,6.10
2018-01-27T04:20:36.475Z,6.10
2018-01-27T04:23:03.954Z,6.10
2018-01-27T04:25:31.383Z,6.10
2018-01-27T04:27:58.884Z,6.10
2018-01-27T04:30:26.309Z,6.20
2018-01-27T04:32:53.788Z,6.20
2018-01-27T04:35:21.243Z,6.20
2018-01-27T04:37:48.678Z,6.20
2018-01-27T04:40:16.101Z,6.20
2018-01-27T04:42:44.330Z,6.30
2018-01-27T04:45:11.753Z,6.30
2018-01-27T04:47:39.184Z,6.30
2018-01-27T04:50:07.379Z,6.30
2018-01-27T04:52:34.821Z,6.20
2018-01-27T04:55:03.050Z,6.20
2018-01-27T04:57:30.494Z,6.20
2018-01-27T04:59:58.059Z,6.20
2018-01-27T05:02:25.504Z,6.20
2018-01-27T05:04:52.937Z,6.20
2018-01-27T05:07:20.369Z,6.20
2018-01-27T05:09:48.566Z,6.20
2018-01-27T05:12:16.011Z,6.20
2018-01-27T05:14:44.213Z,6.30
2018-01-27T05:17:11.653Z,6.20
2018-01-27T05:19:39.082Z,6.20
2018-01-27T05:22:07.314Z,6.20
2018-01-27T05:24:34.769Z,6.20
2018-01-27T05:27:02.193Z,6.20
2018-01-27T05:29:29.625Z,6.30
2018-01-27T05:31:57.829Z,6.30
2018-01-27T05:34:25.266Z,6.20
2018-01-27T05:36:53.457Z,6.30
2018-01-27T05:39:20.945Z,6.30
2018-01-27T05:41:48.374Z,6.30
2018-01-27T05:44:15.813Z,6.30
2018-01-27T05:46:44.033Z,6.30
2018-01-27T05:49:11.462Z,6.20
2018-01-27T05:51:38.905Z,6.30
2018-01-27T05:54:06.363Z,6.30
2018-01-27T05:56:33.859Z,6.30
2018-01-27T05:59:01.853Z,6.30
2018-01-27T06:01:29.295Z,6.30
2018-01-27T06:03:56.733Z,6.30
2018-01-27T06:06:24.167Z,6.30
2018-01-27T06:08:51.617Z,6.30
2018-01-27T06:11:19.049Z,6.30
2018-01-27T06:13:47.258Z,6.40
2018-01-27T06:16:14.694Z,6.30
2018-01-27T06:18:42.889Z,6.40
2018-01-27T06:21:10.326Z,6.40
2018-01-27T06:23:38.524Z,6.40
2018-01-27T06:26:05.947Z,6.30
2018-01-27T06:28:33.389Z,6.40
2018-01-27T06:31:00.826Z,6.40
2018-01-27T06:33:28.281Z,6.40
2018-01-27T06:35:55.856Z,6.50
2018-01-27T06:38:23.277Z,6.40
2018-01-27T06:40:50.746Z,6.50
2018-01-27T06:43:18.201Z,6.60
2018-01-27T06:45:45.676Z,6.60
2018-01-27T06:48:13.211Z,6.70
2018-01-27T06:50:40.644Z,6.80
2018-01-27T06:53:08.073Z,6.90
2018-01-27T06:55:36.283Z,6.90
2018-01-27T06:58:03.758Z,6.90
2018-01-27T07:00:31.198Z,7.00
2018-01-27T07:02:58.671Z,7.10
2018-01-27T07:05:26.689Z,7.30
2018-01-27T07:07:54.905Z,7.10
2018-01-27T07:10:22.338Z,7.10
2018-01-27T07:12:49.773Z,7.10
2018-01-27T07:15:18.001Z,7.00
2018-01-27T07:17:45.469Z,6.90
2018-01-27T07:20:12.913Z,7.00
2018-01-27T07:22:40.365Z,7.10
2018-01-27T07:25:07.825Z,7.20
2018-01-27T07:27:35.282Z,7.20
2018-01-27T07:30:02.718Z,7.20
2018-01-27T07:32:30.187Z,7.10
2018-01-27T07:34:57.621Z,7.00
2018-01-27T07:37:25.070Z,7.00
2018-01-27T07:39:52.510Z,7.00
2018-01-27T07:42:20.819Z,6.90
2018-01-27T07:44:48.274Z,6.80
2018-01-27T07:47:15.755Z,6.90
2018-01-27T07:49:43.186Z,6.80
2018-01-27T07:52:10.636Z,6.80
2018-01-27T07:54:38.132Z,6.80
2018-01-27T07:57:05.596Z,6.80
2018-01-27T07:59:33.091Z,6.80
2018-01-27T08:02:01.293Z,6.90
2018-01-27T08:04:28.778Z,6.80
2018-01-27T08:06:56.429Z,6.90
2018-01-27T08:09:23.869Z,6.90
2018-01-27T08:11:51.321Z,6.90
2018-01-27T08:14:18.798Z,6.80
2018-01-27T08:16:46.225Z,6.70
2018-01-27T08:19:13.805Z,6.70
2018-01-27T08:21:41.307Z,6.70
2018-01-27T08:24:08.786Z,6.70
2018-01-27T08:26:36.281Z,6.80
2018-01-27T08:29:03.710Z,6.80
2018-01-27T08:31:31.152Z,6.80
2018-01-27T08:33:59.361Z,7.10
2018-01-27T08:36:26.821Z,7.00
2018-01-27T08:38:54.286Z,7.10
2018-01-27T08:41:21.742Z,7.00
2018-01-27T08:43:49.196Z,7.00
2018-01-27T08:46:16.631Z,7.00
2018-01-27T08:48:44.089Z,7.00
2018-01-27T08:51:12.167Z,7.10
2018-01-27T08:53:39.658Z,7.00
2018-01-27T08:56:07.074Z,7.00
2018-01-27T08:58:34.527Z,7.00
2018-01-27T09:01:01.970Z,7.00
2018-01-27T09:03:29.497Z,7.00
2018-01-27T09:05:56.994Z,7.00
2018-01-27T09:08:24.473Z,7.00
2018-01-27T09:10:51.917Z,7.00
2018-01-27T09:13:19.387Z,7.00
2018-01-27T09:15:46.862Z,7.00
2018-01-27T09:18:14.301Z,7.00
2018-01-27T09:20:41.755Z,7.00
2018-01-27T09:23:09.245Z,7.10
2018-01-27T09:25:36.770Z,7.10
2018-01-27T09:28:04.223Z,7.10
2018-01-27T09:30:31.685Z,7.10
2018-01-27T09:32:59.134Z,7.10
2018-01-27T09:35:26.991Z,7.10
2018-01-27T09:37:54.556Z,7.10
2018-01-27T09:40:21.993Z,7.20
2018-01-27T09:42:49.453Z,7.30
2018-01-27T09:45:16.978Z,7.40
2018-01-27T09:47:44.492Z,7.40
2018-01-27T09:50:11.942Z,7.40
2018-01-27T09:52:39.414Z,7.40
2018-01-27T09:55:06.868Z,7.40
2018-01-27T09:57:34.301Z,7.30
2018-01-27T10:00:01.766Z,7.30
2018-01-27T10:02:29.198Z,7.40
2018-01-27T10:04:57.281Z,7.40
2018-01-27T10:07:24.725Z,7.40
2018-01-27T10:09:52.911Z,7.30
2018-01-27T10:12:20.334Z,7.20
2018-01-27T10:14:47.877Z,7.20
2018-01-27T10:17:15.315Z,7.20
2018-01-27T10:19:42.746Z,7.30
2018-01-27T10:22:10.173Z,7.30
2018-01-27T10:24:37.605Z,7.30
2018-01-27T10:27:05.066Z,7.40
2018-01-27T10:29:32.592Z,7.30
2018-01-27T10:32:00.032Z,7.30
2018-01-27T10:34:27.525Z,7.40
2018-01-27T10:36:56.578Z,7.60
2018-01-27T10:39:24.157Z,7.60
2018-01-27T10:41:51.590Z,7.60
2018-01-27T10:44:19.025Z,7.70
2018-01-27T10:46:46.514Z,7.80
2018-01-27T10:49:14.008Z,7.80
2018-01-27T10:51:41.549Z,7.90
2018-01-27T10:54:08.993Z,8.00
2018-01-27T10:56:36.417Z,8.10
2018-01-27T10:59:03.889Z,8.10
2018-01-27T11:01:31.313Z,8.20
2018-01-27T11:03:59.543Z,8.20
2018-01-27T11:06:26.991Z,8.20
2018-01-27T11:08:54.453Z,8.20
2018-01-27T11:11:22.010Z,8.00
2018-01-27T11:13:49.458Z,7.90
2018-01-27T11:16:16.889Z,7.90
2018-01-27T11:18:45.074Z,8.10
2018-01-27T11:21:12.524Z,8.10
2018-01-27T11:23:40.019Z,8.30
2018-01-27T11:26:07.465Z,8.30
2018-01-27T11:28:34.937Z,8.30
2018-01-27T11:31:02.381Z,8.20
2018-01-27T11:33:29.810Z,8.10
2018-01-27T11:35:57.314Z,7.90
2018-01-27T11:38:24.761Z,7.70
2018-01-27T11:40:52.301Z,7.70
2018-01-27T11:43:19.735Z,7.70
2018-01-27T11:45:47.240Z,7.80
2018-01-27T11:48:14.691Z,7.80
2018-01-27T11:50:42.229Z,7.80
2018-01-27T11:53:09.773Z,7.90
2018-01-27T11:55:38.166Z,7.90
2018-01-27T11:58:05.619Z,7.90
2018-01-27T12:00:33.279Z,8.00
2018-01-27T12:03:00.720Z,8.00
2018-01-27T12:05:29.119Z,8.00
2018-01-27T12:07:56.541Z,7.90
2018-01-27T12:10:24.738Z,8.00
2018-01-27T12:12:52.175Z,8.00
2018-01-27T12:15:20.390Z,8.00
2018-01-27T12:17:47.826Z,8.00
2018-01-27T12:20:15.262Z,8.00
2018-01-27T12:22:43.465Z,8.20
2018-01-27T12:25:10.895Z,8.10
2018-01-27T12:27:38.359Z,8.10
2018-01-27T12:30:05.863Z,8.00
2018-01-27T12:32:33.315Z,8.00
2018-01-27T12:35:00.956Z,8.00
2018-01-27T12:37:28.417Z,8.00
2018-01-27T12:39:55.854Z,7.90
2018-01-27T12:42:23.347Z,7.90
2018-01-27T12:44:50.921Z,7.80
2018-01-27T12:47:18.489Z,7.80
2018-01-27T12:49:46.031Z,7.80
2018-01-27T12:52:13.562Z,7.80
2018-01-27T12:54:41.170Z,7.80
2018-01-27T12:57:08.598Z,7.90
2018-01-27T12:59:36.053Z,7.90
2018-01-27T13:02:03.529Z,7.90
2018-01-27T13:04:30.965Z,7.90
2018-01-27T13:06:58.405Z,7.90
2018-01-27T13:09:25.893Z,7.90
2018-01-27T13:11:53.333Z,7.90
2018-01-27T13:14:20.802Z,8.00
2018-01-27T13:16:48.230Z,8.00
2018-01-27T13:19:15.663Z,8.10
2018-01-27T13:21:43.113Z,8.20
2018-01-27T13:24:11.329Z,8.20
2018-01-27T13:26:38.852Z,8.20
2018-01-27T13:29:06.393Z,8.20
2018-01-27T13:31:34.101Z,8.20
2018-01-27T13:34:01.747Z,8.30
2018-01-27T13:36:29.424Z,8.30
2018-01-27T13:38:57.085Z,8.20
2018-01-27T13:41:24.710Z,8.10
2018-01-27T13:43:53.080Z,8.00
2018-01-27T13:46:21.443Z,8.00
2018-01-27T13:48:49.136Z,7.90
2018-01-27T13:51:16.884Z,7.90
2018-01-27T13:53:44.694Z,8.00
2018-01-27T13:56:12.170Z,8.00
2018-01-27T13:58:40.481Z,8.00
2018-01-27T14:01:07.916Z,7.80
2018-01-27T14:03:36.171Z,7.80
2018-01-27T14:06:03.618Z,7.80
2018-01-27T14:08:31.050Z,7.70
2018-01-27T14:10:59.254Z,7.90
2018-01-27T14:13:26.690Z,7.80
2018-01-27T14:15:54.896Z,7.90
2018-01-27T14:18:22.375Z,7.80
2018-01-27T14:20:50.638Z,7.80
2018-01-27T14:23:18.188Z,7.80
2018-01-27T14:25:45.642Z,7.80
2018-01-27T14:28:13.130Z,7.80
2018-01-27T14:30:40.572Z,7.80
2018-01-27T14:33:08.002Z,7.80
2018-01-27T14:35:35.489Z,7.70
2018-01-27T14:38:02.894Z,7.70
2018-01-27T14:40:30.322Z,7.70
2018-01-27T14:42:57.757Z,7.70
2018-01-27T14:45:25.251Z,7.70
2018-01-27T14:47:52.702Z,7.80
2018-01-27T14:50:20.132Z,7.80
2018-01-27T14:52:47.562Z,7.80
2018-01-27T14:55:14.993Z,7.80
2018-01-27T14:57:42.601Z,7.80
2018-01-27T15:00:10.079Z,7.80
2018-01-27T15:02:37.565Z,7.70
2018-01-27T15:05:04.991Z,7.80
2018-01-27T15:07:32.429Z,7.80
2018-01-27T15:09:59.860Z,7.80
2018-01-27T15:12:28.062Z,7.70
2018-01-27T15:14:55.486Z,7.70
2018-01-27T15:17:23.490Z,7.70
2018-01-27T15:19:50.925Z,7.70
2018-01-27T15:22:18.402Z,7.70
2018-01-27T15:24:45.817Z,7.80
2018-01-27T15:27:14.017Z,7.90
2018-01-27T15:29:41.473Z,7.90
2018-01-27T15:32:08.918Z,8.10
2018-01-27T15:34:37.183Z,8.20
2018-01-27T15:37:04.618Z,8.20
2018-01-27T15:39:32.071Z,8.30
2018-01-27T15:42:00.939Z,8.30
2018-01-27T15:44:46.435Z,8.20
2018-01-27T15:47:13.892Z,8.20
2018-01-27T15:49:41.337Z,8.10
2018-01-27T15:52:08.788Z,8.20
2018-01-27T15:54:37.019Z,8.20
2018-01-27T15:57:04.494Z,8.20
2018-01-27T15:59:32.125Z,8.30
2018-01-27T16:01:59.598Z,8.30
2018-01-27T16:04:27.027Z,8.20
2018-01-27T16:06:54.501Z,8.30
2018-01-27T16:09:21.935Z,8.20
2018-01-27T16:11:49.382Z,8.10
2018-01-27T16:14:16.845Z,8.00
2018-01-27T16:16:44.345Z,8.00
2018-01-27T16:19:11.795Z,8.00
2018-01-27T16:21:39.233Z,8.10
2018-01-27T16:24:06.721Z,8.10
2018-01-27T16:26:34.158Z,8.10
2018-01-27T16:29:01.642Z,7.90
2018-01-27T16:31:29.114Z,7.90
2018-01-27T16:33:56.558Z,7.80
2018-01-27T16:36:23.997Z,7.80
2018-01-27T16:38:51.443Z,7.80
2018-01-27T16:41:18.923Z,7.70
2018-01-27T16:43:46.339Z,7.60
2018-01-27T16:46:14.546Z,7.40
2018-01-27T16:48:42.093Z,7.40
2018-01-27T16:51:10.309Z,7.30
2018-01-27T16:53:37.767Z,7.20
2018-01-27T16:56:05.197Z,7.30
2018-01-27T16:58:32.690Z,7.40
2018-01-27T17:01:00.149Z,7.40
2018-01-27T17:03:27.605Z,7.40
2018-01-27T17:05:55.041Z,7.50
2018-01-27T17:08:22.533Z,7.40
2018-01-27T17:10:50.033Z,7.40
2018-01-27T17:13:18.255Z,7.20
2018-01-27T17:15:45.717Z,7.20
2018-01-27T17:18:13.162Z,7.20
2018-01-27T17:20:40.604Z,7.20
2018-01-27T17:23:08.033Z,7.10
2018-01-27T17:25:36.299Z,7.10
2018-01-27T17:28:03.727Z,7.10
2018-01-27T17:30:31.163Z,7.20
2018-01-27T17:32:58.624Z,7.20
2018-01-27T17:35:26.060Z,7.20
2018-01-27T17:37:53.523Z,7.20
2018-01-27T17:40:20.961Z,7.20
2018-01-27T17:42:48.450Z,7.20
2018-01-27T17:45:16.013Z,7.30
2018-01-27T17:47:43.450Z,7.30
2018-01-27T17:50:11.471Z,7.30
2018-01-27T17:52:39.042Z,7.30
2018-01-27T17:55:07.117Z,7.30
2018-01-27T17:57:35.327Z,7.30
2018-01-27T18:00:02.758Z,7.20
2018-01-27T18:02:30.233Z,7.20
2018-01-27T18:04:57.751Z,7.10
2018-01-27T18:07:25.198Z,7.20
2018-01-27T18:09:52.653Z,7.20
2018-01-27T18:12:20.114Z,7.20
2018-01-27T18:14:47.658Z,7.20
2018-01-27T18:17:15.210Z,7.20
2018-01-27T18:19:42.634Z,7.20
2018-01-27T18:22:10.933Z,7.20
2018-01-27T18:24:38.313Z,7.20
2018-01-27T18:27:05.759Z,7.30
2018-01-27T18:29:33.194Z,7.20
2018-01-27T18:32:01.222Z,7.30
2018-01-27T18:34:28.677Z,7.20
2018-01-27T18:36:56.137Z,7.30
2018-01-27T18:39:23.558Z,7.30
2018-01-27T18:41:51.057Z,7.30
2018-01-27T18:44:18.538Z,7.30
2018-01-27T18:46:46.747Z,7.30
2018-01-27T18:49:14.289Z,7.30
2018-01-27T18:51:42.620Z,7.30
2018-01-27T18:54:10.059Z,7.30
2018-01-27T18:56:37.500Z,7.40
2018-01-27T18:59:04.986Z,7.40
2018-01-27T19:01:32.449Z,7.40
2018-01-27T19:03:59.870Z,7.50
2018-01-27T19:06:27.341Z,7.60
2018-01-27T19:08:54.788Z,7.50
2018-01-27T19:11:22.255Z,7.50
2018-01-27T19:13:49.722Z,7.50
2018-01-27T19:16:17.260Z,7.50
2018-01-27T19:18:44.860Z,7.50
2018-01-27T19:21:12.318Z,7.40
2018-01-27T19:23:39.782Z,7.40
2018-01-27T19:26:07.230Z,7.40
2018-01-27T19:28:34.664Z,7.40
2018-01-27T19:31:02.098Z,7.40
2018-01-27T19:33:29.585Z,7.50
2018-01-27T19:35:57.026Z,7.50
2018-01-27T19:38:24.501Z,7.50
2018-01-27T19:40:51.938Z,7.50
2018-01-27T19:43:19.781Z,7.50
2018-01-27T19:45:47.293Z,7.50
2018-01-27T19:48:15.375Z,7.60
2018-01-27T19:50:42.825Z,7.60
2018-01-27T19:53:10.258Z,7.70
2018-01-27T19:55:37.730Z,7.70
2018-01-27T19:58:05.173Z,7.70
2018-01-27T20:00:33.218Z,7.70
2018-01-27T20:03:01.426Z,7.70
2018-01-27T20:05:28.973Z,7.60
2018-01-27T20:07:56.411Z,7.70
2018-01-27T20:10:24.829Z,7.70
2018-01-27T20:12:52.275Z,7.80
2018-01-27T20:15:19.733Z,7.70
2018-01-27T20:17:47.170Z,7.70
2018-01-27T20:20:14.618Z,7.70
2018-01-27T20:22:42.062Z,7.80
2018-01-27T20:25:10.406Z,7.70
2018-01-27T20:27:37.841Z,7.70
2018-01-27T20:30:05.286Z,7.80
2018-01-27T20:32:32.734Z,7.80
2018-01-27T20:35:00.329Z,7.80
2018-01-27T20:37:27.769Z,7.70
2018-01-27T20:39:55.319Z,7.80
2018-01-27T20:42:22.734Z,7.80
2018-01-27T20:44:51.052Z,7.80
2018-01-27T20:47:18.522Z,7.80
2018-01-27T20:49:45.959Z,7.90
2018-01-27T20:52:13.410Z,7.90
2018-01-27T20:54:40.844Z,7.80
2018-01-27T20:57:09.038Z,7.80
2018-01-27T20:59:36.474Z,7.80
2018-01-27T21:02:04.003Z,7.90
2018-01-27T21:04:31.593Z,7.80
2018-01-27T21:07:00.023Z,7.90
2018-01-27T21:09:28.112Z,7.80
2018-01-27T21:11:55.696Z,7.90
2018-01-27T21:14:23.279Z,8.00
2018-01-27T21:16:51.658Z,8.00
2018-01-27T21:19:20.002Z,8.00
2018-01-27T21:21:47.606Z,7.90
2018-01-27T21:24:15.382Z,8.00
2018-01-27T21:26:42.837Z,8.00
2018-01-27T21:29:11.138Z,8.00
2018-01-27T21:31:38.651Z,7.90
2018-01-27T21:34:06.991Z,8.00
2018-01-27T21:36:34.537Z,8.00
2018-01-27T21:39:02.010Z,8.00
2018-01-27T21:41:29.449Z,8.00
2018-01-27T21:43:56.881Z,7.90
2018-01-27T21:46:24.333Z,7.90
2018-01-27T21:48:52.671Z,7.90
2018-01-27T21:51:20.107Z,7.80
2018-01-27T21:53:47.659Z,7.90
2018-01-27T21:56:15.070Z,7.80
2018-01-27T21:58:42.508Z,7.70
2018-01-27T22:01:09.941Z,7.60
2018-01-27T22:03:37.422Z,7.70
2018-01-27T22:06:04.860Z,7.60
2018-01-27T22:08:32.588Z,7.60
2018-01-27T22:11:00.914Z,7.40
2018-01-27T22:13:28.448Z,7.30
2018-01-27T22:15:55.870Z,7.20
2018-01-27T22:18:24.122Z,7.00
2018-01-27T22:20:51.662Z,7.00
2018-01-27T22:23:19.158Z,7.00
2018-01-27T22:25:47.394Z,7.00
2018-01-27T22:28:14.817Z,6.90
2018-01-27T22:30:42.339Z,7.00
2018-01-27T22:33:09.869Z,6.90
2018-01-27T22:35:37.318Z,6.90
2018-01-27T22:38:04.760Z,6.80
2018-01-27T22:40:32.216Z,6.80
2018-01-27T22:42:59.653Z,6.70
2018-01-27T22:45:27.230Z,6.60
2018-01-27T22:47:54.646Z,6.60
2018-01-27T22:50:22.099Z,6.60
2018-01-27T22:52:50.364Z,6.40
2018-01-27T22:55:17.794Z,6.40
2018-01-27T22:57:45.249Z,6.30
2018-01-27T23:00:12.687Z,6.30
2018-01-27T23:02:40.161Z,6.20
2018-01-27T23:05:07.592Z,6.30
2018-01-27T23:07:35.037Z,6.20
2018-01-27T23:10:02.477Z,6.20
2018-01-27T23:12:30.677Z,6.30
2018-01-27T23:14:58.163Z,6.20
2018-01-27T23:17:25.621Z,6.20
2018-01-27T23:19:53.094Z,6.20
2018-01-27T23:22:20.550Z,6.20
2018-01-27T23:24:47.974Z,6.30
2018-01-27T23:27:15.445Z,6.30
2018-01-27T23:29:42.874Z,6.30
2018-01-27T23:32:10.321Z,6.30
2018-01-27T23:34:37.773Z,6.40
2018-01-27T23:37:06.017Z,6.40
2018-01-27T23:39:33.442Z,6.40
2018-01-27T23:42:00.905Z,6.40
2018-01-27T23:44:28.363Z,6.40
2018-01-27T23:46:55.804Z,6.40
2018-01-27T23:49:23.279Z,6.50
2018-01-27T23:51:51.465Z,6.50
2018-01-27T23:54:18.938Z,6.40
2018-01-27T23:56:46.483Z,6.50
2018-01-27T23:59:13.918Z,6.50
